• Join FlightAware (Why Join?)
  • Login
  • US Flag 
05:17AM EDT


 

Airport Tracker/Info


-or-


 

Live Flight TrackerFlight Track Log ✈ UPS37 ✈ 28-Jul-2013 ✈ YSSY / SYD - ZGSZ / SZX

Flight Track Log - Related Links

Times and Time Zones

All times are in EDT time to prevent confusion due to time zone crossing. See the UPS37 flight status page for this flight to view local times or setup timezone preferences in your user account.

Time Position Orientation Groundspeed Altitude Reporting Facility
EDT Latitude Longitude Course Direction KTS MPH feet Rate Location/Type
08:00AM -13.5145 140.6320 331° Northwest  Level FlightAware Approximate
08:01AM -13.4068 140.5715 331° Northwest  Level FlightAware Approximate
08:02AM -13.2992 140.5111 331° Northwest  Level FlightAware Approximate
08:03AM -13.1916 140.4507 331° Northwest  Level FlightAware Approximate
08:04AM -13.0840 140.3904 331° Northwest  Level FlightAware Approximate
08:05AM -12.9737 140.3286 331° Northwest  Level FlightAware Approximate
08:05AM -12.1537 139.8714 157° South 38,000  Level Aus ATC (Calculated)
08:06AM -12.8660 140.2684 331° Northwest  Level FlightAware Approximate
08:07AM -12.0118 139.7926 331° Northwest  Level FlightAware Approximate
08:08AM -11.9040 139.7329 332° Northwest  Level FlightAware Approximate
08:09AM -11.7962 139.6731 332° Northwest  Level FlightAware Approximate
08:10AM -11.6884 139.6134 332° Northwest  Level FlightAware Approximate
08:11AM -11.5806 139.5538 332° Northwest  Level FlightAware Approximate
08:12AM -11.4727 139.4942 332° Northwest  Level FlightAware Approximate
08:13AM -11.3649 139.4347 332° Northwest  Level FlightAware Approximate
08:14AM -11.2570 139.3752 332° Northwest  Level FlightAware Approximate
08:15AM -11.1491 139.3157 332° Northwest  Level FlightAware Approximate
08:16AM -11.0413 139.2563 332° Northwest  Level FlightAware Approximate
08:17AM -10.9334 139.1969 332° Northwest  Level FlightAware Approximate
08:18AM -11.0413 139.2563 152° Southeast  Level FlightAware Approximate
08:19AM -10.9334 139.1969 332° Northwest  Level FlightAware Approximate
08:20AM -11.0413 139.2563 152° Southeast  Level FlightAware Approximate
08:21AM -10.9334 139.1969 332° Northwest  Level FlightAware Approximate
08:22AM -11.0413 139.2563 152° Southeast  Level FlightAware Approximate
08:23AM -10.9334 139.1969 332° Northwest  Level FlightAware Approximate
08:24AM -10.8916 139.1741 332° Northwest  Level FlightAware Approximate
08:25AM -10.7837 139.1149 332° Northwest  Level FlightAware Approximate
08:26AM -10.6757 139.0557 332° Northwest  Level FlightAware Approximate
08:27AM -10.5677 138.9966 332° Northwest  Level FlightAware Approximate
08:28AM -10.4597 138.9375 332° Northwest  Level FlightAware Approximate
08:29AM -10.3517 138.8785 332° Northwest  Level FlightAware Approximate
08:29AM -33.9149 151.1651 332° Northwest 151 174 2,600  Level Aus ATC (RADAR)
08:30AM -10.2437 138.8195 332° Northwest  Level FlightAware Approximate
08:31AM -33.7785 151.0022 315° West  Level FlightAware Approximate
08:38AM -33.0404 150.6108 346° North  Level FlightAware Approximate
08:39AM -32.9214 150.5757 346° North  Level FlightAware Approximate
08:40AM -32.8023 150.5406 346° North  Level FlightAware Approximate
08:41AM -32.6833 150.5057 346° North  Level FlightAware Approximate
08:42AM -32.5642 150.4708 346° North  Level FlightAware Approximate
08:43AM -32.4452 150.4361 346° North  Level FlightAware Approximate
08:44AM -32.3261 150.4014 346° North  Level FlightAware Approximate
08:45AM -32.2070 150.3668 346° North  Level FlightAware Approximate
08:46AM -32.0879 150.3323 346° North  Level FlightAware Approximate
08:47AM -31.9688 150.2979 346° North  Level FlightAware Approximate
08:48AM -31.8497 150.2636 346° North  Level FlightAware Approximate
08:49AM -31.7305 150.2294 346° North  Level FlightAware Approximate
08:50AM -31.6114 150.1953 346° North  Level FlightAware Approximate
08:50AM -32.5015 150.3244 346° North 438 504 38,400  Level Aus ATC (RADAR)
08:53AM -6.2085 136.0309 322° Northwest 38,000  Descending Aus ATC (Calculated)
08:55AM -6.0141 135.8874 324° Northwest  Level Estimated
08:56AM -5.9152 135.8144 324° Northwest  Level Estimated
08:57AM -5.8164 135.7415 324° Northwest  Level Estimated
08:58AM -5.7175 135.6685 324° Northwest  Level Estimated
08:59AM -5.6186 135.5957 324° Northwest  Level Estimated
09:00AM -5.5197 135.5228 324° Northwest  Level Estimated
09:01AM -5.4208 135.4500 324° Northwest  Level Estimated
09:02AM -5.3219 135.3772 324° Northwest  Level Estimated
09:03AM -5.2230 135.3044 324° Northwest  Level Estimated
09:04AM -5.1241 135.2316 324° Northwest  Level Estimated
09:05AM -5.0252 135.1588 324° Northwest  Level Estimated
09:06AM -4.9262 135.0861 324° Northwest  Level Estimated
09:07AM -4.8273 135.0134 324° Northwest  Level Estimated
09:08AM -4.7283 134.9408 324° Northwest  Level Estimated
09:09AM -4.6294 134.8681 324° Northwest  Level Estimated
09:10AM -4.5304 134.7955 324° Northwest  Level Estimated
09:11AM -4.4314 134.7228 324° Northwest  Level Estimated
09:12AM -4.3324 134.6502 324° Northwest  Level Estimated
09:12AM -4.1468 134.4658 322° Northwest 38,000  Level Aus ATC (Calculated)
09:13AM -4.2334 134.5777 324° Northwest  Level Estimated
09:14AM -3.9668 134.3342 324° Northwest  Level Estimated
09:15AM -3.8677 134.2618 324° Northwest  Level Estimated
09:16AM -3.7687 134.1894 324° Northwest  Level Estimated
09:17AM -3.6695 134.1170 324° Northwest  Level Estimated
09:18AM -3.5704 134.0447 324° Northwest  Level Estimated
09:19AM -3.4713 133.9723 324° Northwest  Level Estimated
09:20AM -3.3722 133.9000 324° Northwest  Level Estimated
09:21AM -3.2731 133.8277 324° Northwest  Level Estimated
09:22AM -3.1739 133.7554 324° Northwest  Level Estimated
09:23AM -3.0748 133.6831 324° Northwest  Level Estimated
09:24AM -2.9757 133.6109 324° Northwest  Level Estimated
09:25AM -2.8765 133.5386 324° Northwest  Level Estimated
09:26AM -2.7773 133.4664 324° Northwest  Level Estimated
09:27AM -2.6782 133.3941 324° Northwest  Level Estimated
09:28AM -2.5790 133.3219 324° Northwest  Level Estimated
09:29AM -2.4799 133.2497 324° Northwest  Level Estimated
09:30AM -2.3807 133.1775 324° Northwest  Level Estimated
09:30AM -2.2253 132.9782 322° Northwest 38,000  Level Aus ATC (Calculated)
09:30AM -2.2253 132.9782 322° Northwest 38,000  Level Aus ATC (Calculated)
09:32AM -2.0532 132.8535 324° Northwest  Level Estimated
09:33AM -1.9538 132.7815 324° Northwest  Level Estimated
09:34AM -1.8545 132.7096 324° Northwest  Level Estimated
09:35AM -1.7552 132.6376 324° Northwest  Level Estimated
09:36AM -1.6558 132.5657 324° Northwest  Level Estimated
09:37AM -1.5565 132.4938 324° Northwest  Level Estimated
09:38AM -1.4571 132.4219 324° Northwest  Level Estimated
09:39AM -1.3578 132.3500 324° Northwest  Level Estimated
09:40AM -1.2584 132.2781 324° Northwest  Level Estimated
09:41AM -1.1591 132.2062 324° Northwest  Level Estimated
09:42AM -1.0597 132.1343 324° Northwest  Level Estimated
09:43AM -0.9604 132.0624 324° Northwest  Level Estimated
09:44AM -0.8610 131.9905 324° Northwest  Level Estimated
09:45AM -0.7616 131.9187 324° Northwest  Level Estimated
09:46AM -0.6623 131.8468 324° Northwest  Level Estimated
09:47AM -0.5629 131.7749 324° Northwest  Level Estimated
09:48AM -0.4636 131.7030 324° Northwest  Level Estimated
09:49AM -0.3642 131.6312 324° Northwest  Level Estimated
09:50AM -0.2648 131.5593 324° Northwest  Level Estimated
09:51AM -0.1655 131.4875 324° Northwest  Level Estimated
09:52AM -0.0661 131.4156 324° Northwest  Level Estimated
09:53AM 0.0332 131.3437 324° Northwest  Level Estimated
09:54AM 0.1326 131.2719 324° Northwest  Level Estimated
09:55AM 0.2320 131.2000 324° Northwest  Level Estimated
09:56AM 0.3313 131.1282 324° Northwest  Level Estimated
09:57AM 0.4307 131.0563 324° Northwest  Level Estimated
09:58AM 0.5300 130.9844 324° Northwest  Level Estimated
09:59AM 0.6294 130.9126 324° Northwest  Level Estimated
10:00AM 0.7288 130.8407 324° Northwest  Level Estimated
10:01AM 0.8281 130.7688 324° Northwest  Level Estimated
10:02AM 0.9275 130.6969 324° Northwest  Level Estimated
10:03AM 1.0269 130.6250 324° Northwest  Level Estimated
10:04AM 1.1263 130.5531 324° Northwest  Level Estimated
10:05AM 1.2256 130.4813 324° Northwest  Level Estimated
10:06AM 1.3250 130.4094 324° Northwest  Level Estimated
10:07AM 1.4243 130.3375 324° Northwest  Level Estimated
10:08AM 1.5237 130.2655 324° Northwest  Level Estimated
10:09AM 1.6230 130.1936 324° Northwest  Level Estimated
10:10AM 1.7224 130.1217 324° Northwest  Level Estimated
10:11AM 1.8217 130.0498 324° Northwest  Level Estimated
10:12AM 1.9210 129.9778 324° Northwest  Level Estimated
10:13AM 2.0204 129.9059 324° Northwest  Level Estimated
10:14AM 2.1197 129.8339 324° Northwest  Level Estimated
10:15AM 2.2190 129.7620 324° Northwest  Level Estimated
10:16AM 2.3184 129.6900 324° Northwest  Level Estimated
10:17AM 2.4177 129.6180 324° Northwest  Level Estimated
10:18AM 2.5170 129.5460 324° Northwest  Level Estimated
10:19AM 2.6163 129.4740 324° Northwest  Level Estimated
10:20AM 2.7156 129.4020 324° Northwest  Level Estimated
10:21AM 2.8149 129.3300 324° Northwest  Level Estimated
10:22AM 2.9142 129.2579 324° Northwest  Level Estimated
10:23AM 3.0135 129.1859 324° Northwest  Level Estimated
10:24AM 3.1128 129.1138 324° Northwest  Level Estimated
10:25AM 3.2121 129.0417 324° Northwest  Level Estimated
10:26AM 3.3114 128.9696 324° Northwest  Level Estimated
10:27AM 3.4107 128.8975 324° Northwest  Level Estimated
10:28AM 3.5099 128.8254 324° Northwest  Level Estimated
10:28AM 4.0850 128.0178 322° Northwest 38,000  Level Aus ATC (Calculated)
10:29AM 3.6092 128.7533 324° Northwest  Level Estimated
10:30AM 4.2068 127.9314 325° Northwest  Level Estimated
10:31AM 4.3069 127.8604 325° Northwest  Level Estimated
10:32AM 4.4070 127.7893 325° Northwest  Level Estimated
10:33AM 4.5071 127.7183 325° Northwest  Level Estimated
10:34AM 4.6071 127.6472 325° Northwest  Level Estimated
10:35AM 4.7072 127.5761 325° Northwest  Level Estimated
10:36AM 4.8073 127.5050 325° Northwest  Level Estimated
10:37AM 4.9073 127.4338 325° Northwest  Level Estimated
10:38AM 5.0074 127.3627 325° Northwest  Level Estimated
10:39AM 5.1075 127.2915 325° Northwest  Level Estimated
10:40AM 5.2075 127.2203 325° Northwest  Level Estimated
10:41AM 5.3075 127.1490 325° Northwest  Level Estimated
10:42AM 5.4075 127.0778 325° Northwest  Level Estimated
10:43AM 5.5076 127.0065 325° Northwest  Level Estimated
10:44AM 5.6076 126.9352 325° Northwest  Level Estimated
10:45AM 5.7076 126.8639 325° Northwest  Level Estimated
10:46AM 5.8076 126.7925 325° Northwest  Level Estimated
10:47AM 5.9075 126.7212 325° Northwest  Level Estimated
10:48AM 6.0075 126.6498 325° Northwest  Level Estimated
10:48AM 6.1645 126.4078 322° Northwest 38,000  Level Aus ATC (Calculated)
10:49AM 6.1075 126.5783 325° Northwest  Level Estimated
10:50AM 6.2074 126.5069 325° Northwest  Level Estimated
10:51AM 6.3074 126.4354 325° Northwest  Level Estimated
10:52AM 6.4073 126.3639 325° Northwest  Level Estimated
10:53AM 6.5072 126.2924 325° Northwest  Level Estimated
10:54AM 6.6071 126.2208 325° Northwest  Level Estimated
10:55AM 6.7827 125.9695 325° Northwest  Level Estimated
10:56AM 6.8829 125.8983 325° Northwest  Level Estimated
10:57AM 6.9831 125.8271 325° Northwest  Level Estimated
10:57AM 7.0652 125.7056 323° Northwest 38,000  Level Aus ATC (Calculated)
10:58AM 7.0833 125.7559 325° Northwest  Level Estimated
10:59AM 7.2375 125.5836 325° Northwest  Level Estimated
11:00AM 7.3378 125.5126 325° Northwest  Level Estimated
11:01AM 7.4381 125.4415 325° Northwest  Level Estimated
11:02AM 7.5385 125.3703 325° Northwest  Level Estimated
11:03AM 7.6388 125.2992 325° Northwest  Level Estimated
11:03AM 7.1180 125.6650 325° Northwest 476 548 40,100  Level FlightAware
11:04AM 7.7391 125.2280 325° Northwest  Level Estimated
11:04AM 7.2550 125.5540 321° Northwest 477 549 40,000  Level FlightAware
11:04AM 7.3250 125.4970 321° Northwest 476 548 40,100  Climbing FlightAware
11:05AM 7.3960 125.4390 321° Northwest 473 544 40,000 -120 Descending FlightAware
11:06AM 7.4690 125.3800 321° Northwest 471 542 40,000  Level FlightAware
11:07AM 7.5450 125.3180 321° Northwest 470 541 40,000  Level FlightAware
11:08AM 7.6790 125.2090 321° Northwest 470 541 40,000  Level FlightAware
11:08AM 7.7300 125.1680 321° Northwest 470 541 40,000  Level FlightAware
11:09AM 7.7970 125.1130 321° Northwest 470 541 40,000  Level FlightAware
11:11AM 8.5286 124.5296 142° Southeast  Descending Aus ATC (Calculated)
11:12AM 8.0120 124.9384 321° Northwest  Level FlightAware Approximate
11:13AM 8.6895 124.4161 321° Northwest  Level Estimated
11:13AM 8.2330 124.7590 321° Northwest 488 562 40,100  Level FlightAware
11:14AM 8.3060 124.6980 320° Northwest 491 565 40,000  Descending FlightAware
11:15AM 8.3840 124.6350 321° Northwest 493 567 40,100  Climbing FlightAware
11:16AM 8.4950 124.5440 321° Northwest 492 566 40,100  Level FlightAware
11:16AM 8.5490 124.4990 321° Northwest 492 566 40,100 -120 Level FlightAware
11:17AM 8.6340 124.4200 317° Northwest 491 565 40,000 -120 Descending FlightAware
11:18AM 8.7150 124.3500 319° Northwest 490 564 40,000  Level FlightAware
11:19AM 8.8080 124.2680 319° Northwest 489 563 40,000  Level FlightAware
11:19AM 8.8970 124.1910 319° Northwest 488 562 40,000  Level FlightAware
11:20AM 8.9810 124.1170 319° Northwest 488 562 40,000  Level FlightAware
11:21AM 9.3747 123.9314 161° South  Descending Aus ATC (Calculated)
11:21AM 9.0780 124.0340 320° Northwest 486 559 40,000 43,620 Climbing FlightAware
11:22AM 9.1460 123.9740 319° Northwest 487 560 40,000  Level FlightAware
11:23AM 9.2130 123.9160 319° Northwest 487 560 40,000  Level FlightAware
11:23AM 9.2850 123.8530 319° Northwest 486 559 40,000  Level FlightAware
11:24AM 9.4020 123.7510 319° Northwest 488 562 40,100  Climbing FlightAware
11:25AM 9.6565 123.7313 192° South  Descending Aus ATC (Calculated)
11:25AM 9.6565 123.7313 192° South 133,620 Level Aus ATC (Calculated)
11:25AM 9.4720 123.6900 319° Northwest 488 562 40,100 41,460 Climbing FlightAware
11:26AM 9.5390 123.6310 319° Northwest 488 562 40,100  Level FlightAware
11:26AM 9.6080 123.5710 319° Northwest 486 559 40,100  Level FlightAware
11:27AM 9.6740 123.5130 319° Northwest 486 559 40,100 -120 Level FlightAware
11:27AM 9.7190 123.4740 319° Northwest 486 559 40,000  Descending FlightAware
11:28AM 9.8120 123.3930 319° Northwest 485 558 40,100  Climbing FlightAware
11:29AM 9.8810 123.3320 319° Northwest 483 556 40,000 -120 Descending FlightAware
11:30AM 9.9460 123.2750 319° Northwest 481 554 40,000  Level FlightAware
11:30AM 10.0260 123.2050 319° Northwest 481 554 40,000  Level FlightAware
11:31AM 10.0940 123.1450 319° Northwest 481 554 40,000  Level FlightAware
11:32AM 10.1650 123.0830 319° Northwest 481 554 40,000  Level FlightAware
11:33AM 10.2350 123.0210 319° Northwest 483 556 40,000  Level FlightAware
11:33AM 10.2950 122.9680 319° Northwest 486 559 40,000 60 Level FlightAware
11:34AM 10.3630 122.9090 320° Northwest 488 562 40,100 60 Climbing FlightAware
11:34AM 10.4330 122.8470 319° Northwest 490 564 40,100  Level FlightAware
11:35AM 10.5010 122.7870 319° Northwest 490 564 40,100  Level FlightAware
11:36AM 10.5690 122.7270 319° Northwest 490 564 40,100  Level FlightAware
11:37AM 10.6510 122.6550 319° Northwest 490 564 40,100  Level FlightAware
11:37AM 10.7070 122.6050 319° Northwest 487 560 40,100 -120 Level FlightAware
11:38AM 10.7840 122.5380 319° Northwest 481 554 40,000 -120 Descending FlightAware
11:39AM 10.8540 122.4760 319° Northwest 478 550 40,000  Level FlightAware
11:39AM 10.9240 122.4100 317° Northwest 476 548 40,000  Level FlightAware
11:40AM 11.0270 122.3110 317° Northwest 477 549 40,000  Level FlightAware
11:41AM 11.0940 122.2480 317° Northwest 480 552 40,000 60 Level FlightAware
11:42AM 11.1670 122.1780 317° Northwest 480 552 40,100  Climbing FlightAware
11:43AM 11.2690 122.0830 318° Northwest 485 558 40,100  Level FlightAware
11:44AM 11.3280 122.0260 318° Northwest 485 558 40,100  Level FlightAware
11:44AM 11.3970 121.9610 317° Northwest 485 558 40,100  Level FlightAware
11:45AM 11.4440 121.9160 317° Northwest 485 558 40,100  Level FlightAware
11:46AM 11.5080 121.8550 317° Northwest 485 558 40,100  Level FlightAware
11:47AM 11.5750 121.7910 317° Northwest 485 558 40,100  Level FlightAware
11:47AM 11.5131 122.4023 280° West  Descending Aus ATC (Calculated)
11:47AM 11.6280 121.7410 317° Northwest 485 558 40,100 52,140 Climbing FlightAware
11:48AM 11.7620 121.6150 317° Northwest 498 573 40,000  Descending FlightAware
11:49AM 11.8300 121.5500 317° Northwest 493 567 40,100  Climbing FlightAware
11:49AM 11.8850 121.4970 317° Northwest 491 565 40,000 -120 Descending FlightAware
11:49AM 11.6816 122.2806 289° West  Descending Aus ATC (Calculated)
11:50AM 11.9610 121.4250 317° Northwest 493 567 40,000 26,940 Climbing FlightAware
11:51AM 12.0370 121.3520 317° Northwest 492 566 40,000  Level FlightAware
11:51AM 12.0930 121.2990 317° Northwest 496 571 40,000  Level FlightAware
11:52AM 12.1610 121.2340 317° Northwest 498 573 40,000  Level FlightAware
11:53AM 12.2390 121.1600 317° Northwest 496 571 40,000  Level FlightAware
11:53AM 12.3010 121.1000 317° Northwest 495 570 40,000  Level FlightAware
11:54AM 12.3820 121.0300 320° Northwest 495 570 40,000  Level FlightAware
11:55AM 12.4610 120.9810 329° Northwest 496 571 40,000 60 Level FlightAware
11:55AM 12.5390 120.9320 328° Northwest 493 567 40,100 60 Climbing FlightAware
11:56AM 12.2428 121.8741 291° West  Descending Aus ATC (Calculated)
11:56AM 12.2428 121.8741 291° West 160,380 Level Aus ATC (Calculated)
11:56AM 12.6050 120.8910 328° Northwest 492 566 40,100 39,960 Climbing FlightAware
11:57AM 12.6930 120.8360 329° Northwest 491 565 40,000 -120 Descending FlightAware
11:57AM 12.7730 120.7860 329° Northwest 491 565 40,000  Level FlightAware
11:58AM 12.8540 120.7360 329° Northwest 491 565 40,000  Level FlightAware
11:59AM 12.9370 120.6830 328° Northwest 491 565 40,000  Level FlightAware
11:59AM 13.0150 120.6340 329° Northwest 493 567 40,000 60 Level FlightAware
12:00PM 13.1000 120.5820 329° Northwest 494 568 40,100 60 Climbing FlightAware
12:01PM 13.1720 120.5370 329° Northwest 496 571 40,100  Level FlightAware
12:01PM 13.2490 120.4880 328° Northwest 497 572 40,100  Level FlightAware
12:02PM 13.3360 120.4340 329° Northwest 496 571 40,100  Level FlightAware
12:03PM 13.4090 120.3870 328° Northwest 493 567 40,100 -120 Level FlightAware
12:03PM 13.4880 120.3380 329° Northwest 489 563 40,000 -120 Descending FlightAware
12:04PM 13.5640 120.2900 328° Northwest 487 560 40,000  Level FlightAware
12:05PM 13.6410 120.2420 329° Northwest 484 557 40,000  Level FlightAware
12:06PM 13.7250 120.1880 328° Northwest 486 559 40,000 -120 Level FlightAware
12:06PM 13.7950 120.1450 329° Northwest 483 556 39,900 -660 Descending FlightAware
12:07PM 13.8810 120.0780 323° Northwest 490 564 39,100 -1,020 Descending FlightAware
12:08PM 13.9470 120.0060 313° West 496 571 38,400 -840 Descending FlightAware
12:08PM 14.0070 119.9410 314° West 498 573 38,000 -300 Descending FlightAware
12:09PM 14.0830 119.8570 313° West 500 575 38,000  Level FlightAware
12:10PM 14.1480 119.7870 314° West 499 574 38,000  Level FlightAware
12:10PM 14.2150 119.7130 313° West 498 573 38,000  Level FlightAware
12:11PM 14.2720 119.6500 313° West 498 573 38,000  Level FlightAware
12:12PM 14.3440 119.5710 313° West 500 575 38,000  Level FlightAware
12:12PM 14.4100 119.4980 313° West 500 575 38,000  Level FlightAware
12:13PM 14.4770 119.4250 313° West 498 573 38,000  Level FlightAware
12:14PM 14.5460 119.3480 313° West 498 573 38,000  Level FlightAware
12:15PM 14.6130 119.2750 313° West 498 573 38,000 60 Level FlightAware
12:15PM 14.6620 119.2200 313° West 495 570 38,100  Climbing FlightAware
12:16PM 14.7300 119.1450 313° West 496 571 38,000 -120 Descending FlightAware
12:17PM 14.7890 119.0800 313° West 495 570 38,000  Level FlightAware
12:17PM 14.8470 119.0160 313° West 496 571 38,000  Level FlightAware
12:18PM 14.9220 118.9330 313° West 496 571 38,000  Level FlightAware
12:19PM 14.9830 118.8660 313° West 498 573 38,000 60 Level FlightAware
12:19PM 15.0490 118.7920 313° West 497 572 38,100 120 Climbing FlightAware
12:19PM 15.0620 118.7780 314° West 496 571 38,100 -60 Level FlightAware
12:22PM 15.2930 118.5220 313° West 493 567 38,000 -60 Descending FlightAware
12:23PM 15.3770 118.4260 312° West 492 566 38,000  Level FlightAware
12:24PM 15.4400 118.3530 312° West 492 566 38,000  Level FlightAware
12:24PM 15.4880 118.2980 312° West 492 566 38,000  Level FlightAware
12:25PM 15.5350 118.2440 312° West 492 566 38,000  Level FlightAware
12:26PM 15.5850 118.1860 312° West 492 566 38,000  Level FlightAware
12:26PM 15.6470 118.1150 312° West 492 566 38,000  Level FlightAware
12:27PM 15.6950 118.0590 312° West 492 566 38,000  Level FlightAware
12:28PM 15.7570 117.9880 312° West 492 566 38,000  Level FlightAware
12:28PM 15.8010 117.9370 312° West 492 566 38,000  Level FlightAware
12:29PM 15.8640 117.8650 312° West 492 566 38,000  Level FlightAware
12:30PM 15.9100 117.8110 312° West 492 566 38,000  Level FlightAware
12:30PM 15.9570 117.7570 312° West 492 566 38,000  Level FlightAware
12:31PM 16.0400 117.6620 312° West 492 566 38,000  Level FlightAware
12:32PM 16.0860 117.6080 312° West 492 566 38,000  Level FlightAware
12:35PM 16.3583 117.4568 332° Northwest  Level Estimated
12:36PM 16.4665 117.3966 332° Northwest  Level Estimated
12:37PM 16.5747 117.3363 332° Northwest  Level Estimated
12:38PM 16.6828 117.2760 332° Northwest  Level Estimated
12:39PM 16.7909 117.2156 332° Northwest  Level Estimated
12:40PM 16.8990 117.1551 332° Northwest  Level Estimated
12:41PM 17.0071 117.0946 332° Northwest  Level Estimated
12:42PM 17.1152 117.0339 332° Northwest  Level Estimated
12:43PM 16.9040 118.4029 325° Northwest  Level Estimated
12:44PM 17.0029 118.3271 324° Northwest  Level Estimated
12:45PM 17.1018 118.2512 324° Northwest  Level Estimated
12:46PM 17.2006 118.1752 324° Northwest  Level Estimated
12:47PM 17.2995 118.0992 324° Northwest  Level Estimated
12:48PM 17.3982 118.0231 324° Northwest  Level Estimated
12:49PM 17.4970 117.9469 324° Northwest  Level Estimated
12:50PM 17.5957 117.8706 324° Northwest  Level Estimated
12:51PM 17.6944 117.7942 324° Northwest  Level Estimated
12:52PM 17.7931 117.7178 324° Northwest  Level Estimated
12:53PM 17.8917 117.6412 324° Northwest  Level Estimated
12:54PM 17.9903 117.5646 324° Northwest  Level Estimated
12:55PM 18.0889 117.4879 324° Northwest  Level Estimated
12:56PM 18.1875 117.4111 323° Northwest  Level Estimated
12:57PM 18.2860 117.3342 323° Northwest  Level Estimated
12:58PM 18.3845 117.2572 323° Northwest  Level Estimated
12:59PM 18.4829 117.1802 323° Northwest  Level Estimated
01:00PM 18.5814 117.1030 323° Northwest  Level Estimated
01:01PM 18.6797 117.0258 323° Northwest  Level Estimated
01:02PM 18.7781 116.9484 323° Northwest  Level Estimated
01:03PM 18.8764 116.8710 323° Northwest  Level Estimated
01:04PM 18.9747 116.7935 323° Northwest  Level Estimated
01:05PM 19.0730 116.7159 323° Northwest  Level Estimated
01:06PM 19.1712 116.6382 323° Northwest  Level Estimated
01:06PM 20.1190 114.8910 323° Northwest 38,100  Level FlightAware
01:06PM 20.1750 114.8420 321° Northwest 483 556 38,100 -180 Level FlightAware
01:07PM 20.2890 114.7460 322° Northwest 453 521 37,800 -1,920 Descending FlightAware
01:08PM 20.3620 114.6840 321° Northwest 470 541 34,800 -3,780 Descending FlightAware
01:09PM 20.4280 114.6300 323° Northwest 486 559 32,900 -2,760 Descending FlightAware
01:09PM 20.5030 114.5670 322° Northwest 496 571 31,200 -3,000 Descending FlightAware
01:10PM 20.5780 114.5000 320° Northwest 506 582 29,000 -3,960 Descending FlightAware
01:11PM 20.6710 114.4150 319° Northwest 515 593 25,000 -3,840 Descending FlightAware
01:12PM 20.7620 114.2660 303° West 507 583 22,000 -2,160 Descending FlightAware
01:13PM 20.7830 114.2240 298° West 506 582 21,700 -480 Descending FlightAware
01:13PM 20.8430 114.1040 298° West 505 581 21,300 -660 Descending FlightAware
01:14PM 20.9220 113.9480 298° West 498 573 20,500 -540 Descending FlightAware
01:15PM 20.9570 113.8770 298° West 498 573 20,500 -1,020 Level FlightAware
01:16PM 21.0290 113.7380 299° West 490 564 19,000 -1,020 Descending FlightAware
01:17PM 21.0730 113.6500 298° West 488 562 18,800 -180 Descending FlightAware
01:17PM 21.1060 113.5850 299° West 488 562 18,800 -840 Level FlightAware
01:18PM 21.1740 113.4790 305° West 487 560 17,700 -1,440 Descending FlightAware
01:19PM 21.2530 113.4100 321° Northwest 480 552 16,700 -1,200 Descending FlightAware
01:20PM 21.3300 113.3320 317° Northwest 475 547 16,000 -900 Descending FlightAware
01:20PM 21.3940 113.2670 317° Northwest 461 531 15,400 -1,620 Descending FlightAware
01:21PM 21.4710 113.1910 317° Northwest 441 507 13,600 -1,080 Descending FlightAware
01:22PM 21.5380 113.1260 318° Northwest 441 507 13,600  Level FlightAware
01:23PM 21.5840 113.0820 318° Northwest 441 507 13,600 -600 Level FlightAware
01:25PM 21.7855 113.2205 33° Northeast  Level Estimated
01:26PM 21.8889 113.2916 33° Northeast  Level Estimated
01:27PM 21.9922 113.3629 33° Northeast  Level Estimated
01:27PM 21.9250 113.2410 33° Northeast 357 411 10,800  Level FlightAware
01:27PM 21.9900 113.2650 19° North 361 415 10,900 60 Climbing FlightAware
01:28PM 22.0480 113.2860 19° North 360 414 10,900 -480 Level FlightAware
01:29PM 22.1220 113.3130 19° North 342 394 10,300 -900 Descending FlightAware
01:29PM 22.1650 113.3280 18° North 325 374 9,800 -1,080 Descending FlightAware
01:30PM 22.2050 113.3420 18° North 309 356 9,300 -900 Descending FlightAware
01:30PM 22.2400 113.3550 19° North 308 354 9,000 -480 Descending FlightAware
01:30PM 22.2570 113.3610 18° North 308 354 9,000  Level FlightAware
01:31PM 22.2940 113.3750 19° North 306 352 9,000  Level FlightAware
01:31PM 22.3130 113.3820 19° North 305 351 9,000  Level FlightAware
01:32PM 22.3560 113.3980 19° North 306 352 9,000  Level FlightAware
01:32PM 22.3880 113.4100 19° North 306 352 9,000  Level FlightAware
01:32PM 22.4280 113.4250 19° North 304 350 9,000  Level FlightAware
01:33PM 22.4440 113.4300 16° North 304 350 9,000  Level FlightAware
01:33PM 22.4850 113.4450 19° North 305 351 9,000  Level FlightAware
01:34PM 22.5180 113.4570 19° North 282 325 9,000  Level FlightAware
01:34PM 22.5540 113.4700 18° North 248 285 9,000 -120 Level FlightAware
01:35PM 22.5830 113.4800 18° North 227 261 8,900 -660 Descending FlightAware
01:35PM 22.6130 113.4910 19° North 224 258 8,400 -900 Descending FlightAware
01:35PM 22.6360 113.5000 20° North 223 257 8,100 -960 Descending FlightAware
01:36PM 22.6620 113.5100 20° North 221 254 7,600 -1,140 Descending FlightAware
01:36PM 22.6890 113.5200 19° North 222 255 7,100 -1,020 Descending FlightAware
01:37PM 22.7150 113.5290 18° North 222 255 6,700 -1,020 Descending FlightAware
01:37PM 22.7350 113.5370 20° North 226 260 6,300 -1,020 Descending FlightAware
01:38PM 22.7670 113.5490 19° North 223 257 5,800 -960 Descending FlightAware
01:38PM 22.7940 113.5590 19° North 218 251 5,400 -780 Descending FlightAware
01:39PM 22.8180 113.5730 28° Northeast 206 237 5,100 -600 Descending FlightAware
01:39PM 22.8320 113.5890 46° Northeast 200 230 4,900 -840 Descending FlightAware
01:39PM 22.8480 113.6060 44° Northeast 200 230 4,500 -960 Descending FlightAware
01:41PM 22.8540 113.6750 85° East 167 192 3,000 -1,020 Descending FlightAware
01:41PM 22.8360 113.6850 153° Southeast 165 190 2,500 -840 Descending FlightAware
01:42PM 22.8170 113.6960 152° Southeast 166 191 2,400 -120 Descending FlightAware
01:42PM 22.8000 113.7050 154° Southeast 167 192 2,400  Level FlightAware
01:42PM 22.7920 113.7100 150° Southeast 165 190 2,400  Level FlightAware
01:43PM 22.7680 113.7220 155° Southeast 134 154 2,400 -240 Level FlightAware
01:44PM 22.7480 113.7340 151° Southeast 133 153 2,100 -660 Descending FlightAware
01:44PM 22.7320 113.7420 155° Southeast 135 155 1,800 -720 Descending FlightAware
01:44PM 22.7230 113.7470 153° Southeast 135 155 1,600 -660 Descending FlightAware
01:45PM 22.7110 113.7540 152° Southeast 134 154 1,400 -720 Descending FlightAware
01:45PM 22.6990 113.7600 155° Southeast 131 151 1,100 -720 Descending FlightAware
01:46PM 22.6860 113.7670 154° Southeast 132 152 900 -660 Descending FlightAware
01:46PM 22.6690 113.7770 152° Southeast 139 160 500 -780 Descending FlightAware
01:46PM 22.6550 113.7850 152° Southeast 137 158 200 -840 Descending FlightAware
01:47PM 22.6400 113.7930 154° Southeast 58 67 -420 Descending FlightAware
01:47PM 22.6370 113.7940 163° South 29 33  Level FlightAware
01:48PM 22.6350 113.7970 126° Southeast 30 35  Level FlightAware
01:48PM 22.6350 113.7980 90° East 21 24  Level FlightAware
01:49PM 22.6360 113.7980 360° North 27 31  Level FlightAware
01:49PM 22.6370 113.7990 43° Northeast 18 21  Level FlightAware
01:50PM 22.6380 113.8020 70° East 33 38  Level FlightAware
01:50PM 22.6390 113.8030 43° Northeast 25 29  Level FlightAware
01:50PM 22.6390 113.8050 90° East 31 36  Level FlightAware
01:51PM 22.6400 113.8070 62° Northeast 16 18  Level FlightAware
01:51PM 22.6410 113.8090 62° Northeast 29 33  Level FlightAware
01:52PM 22.6390 113.8110 137° Southeast 24 28  Level FlightAware
01:52PM 22.6370 113.8120 155° Southeast 23 26  Level FlightAware
01:53PM 22.6360 113.8130 137° Southeast 21 24  Level FlightAware
01:53PM 22.6340 113.8150 137° Southeast 24 28  Level FlightAware
01:53PM 22.6350 113.8160 43° Northeast 25 29  Level FlightAware
01:56PM 22.6383 113.8117 325° Northwest  Level FlightAware Approximate
01:57PM 22.6395 113.8124 325° Northwest  Level Estimated
01:58PM 22.6383 113.8117 325° Northwest  Level FlightAware Approximate
01:59PM 22.6395 113.8124 325° Northwest  Level Estimated
02:00PM 22.6383 113.8117 325° Northwest  Level FlightAware Approximate
02:01PM 22.6395 113.8124 325° Northwest  Level Estimated
02:02PM 22.6383 113.8117 325° Northwest  Level FlightAware Approximate
02:03PM 22.6395 113.8124 325° Northwest  Level Estimated
02:04PM 22.6383 113.8117 325° Northwest  Level FlightAware Approximate
02:05PM 22.6395 113.8124 325° Northwest  Level Estimated
02:06PM 22.6383 113.8117 325° Northwest  Level FlightAware Approximate
02:07PM 22.6395 113.8124 325° Northwest  Level Estimated
02:08PM 22.6383 113.8117 325° Northwest  Level FlightAware Approximate
02:09PM 22.6395 113.8124 325° Northwest  Level Estimated
02:10PM 22.6383 113.8117 325° Northwest  Level FlightAware Approximate
02:11PM 22.6395 113.8124 325° Northwest  Level Estimated
02:12PM 22.6383 113.8117 325° Northwest  Level FlightAware Approximate
02:13PM 22.6395 113.8124 325° Northwest  Level Estimated
02:14PM 22.6383 113.8117 325° Northwest  Level FlightAware Approximate
02:15PM 22.6395 113.8124 325° Northwest  Level Estimated
02:16PM 22.6383 113.8117 325° Northwest  Level FlightAware Approximate
02:17PM 22.6395 113.8124 325° Northwest  Level Estimated
02:18PM 22.6383 113.8117 325° Northwest  Level FlightAware Approximate
02:19PM 22.6395 113.8124 325° Northwest  Level Estimated
02:20PM 22.6383 113.8117 325° Northwest  Level FlightAware Approximate
02:21PM 22.6395 113.8124 325° Northwest  Level Estimated